ウィニペグ の空港の天気 - METARとTAF

ウィニペグ国際空港 ( CYWG / YWG ) - カナダ マニトバ州ウィニペグ
飛行場実況気象(Metar)
観測時間10/16 02:44 CDT (10/16 07:44 UTC)
風向・風速北西 4m/s
視程1600m
天気現象もや
全天を覆う雲 雲底高度 90m
気温1℃
湿度93%
気圧1022.4hPa
METARCYWG 160744Z 32008KT 1SM R31/P6000FT/D R36/P6000FT/N BR OVC003 01/00 A3015 RMK ST8 SLP224
過去の天気等 Google飛行場航空写真 Wunderground天気予報

過去48時間のMETAR

飛行場予報(TAF)
発表時間: 10/16 02:50 CDT (10/16 07:50 UTC)
予報対象時間: 16日2時 CDT ~ 17日1時 CDT
風向・風速北西 4m/s
視程1610m
天気現象もや
全天を覆う雲 雲底高度 90m
16日2時 CDT ~ 16日10時 CDT に一時的に
視程6440m
天気現象もや
全天の4割程度の雲 雲底高度 90m
全天を覆う雲 雲底高度 1220m
16日10時 CDT から
風向・風速南南東 4m/s
視程10km以上
全天を覆う雲 雲底高度 610m
16日10時 CDT ~ 16日15時 CDT に一時的に
全天を覆う雲 雲底高度 760m
16日11時 CDT ~ 16日13時 CDT に徐々に
風向・風速南 5m/s
16日15時 CDT から
風向・風速南 5m/s
視程10km以上
少しの雲 雲底高度 370m
全天の8割程度の雲 雲底高度 760m
16日22時 CDT から
風向・風速南東 5m/s
視程10km以上
全天の4割程度の雲 雲底高度 240m
全天を覆う雲 雲底高度 370m
TAF AMD CYWG 160750Z 1607/1706 32008KT 1SM BR OVC003
TEMPO 1607/1615 4SM BR SCT003 OVC040
FM161500 15007KT P6SM OVC020
TEMPO 1615/1620 OVC025
BECMG 1616/1618 17010KT
FM162000 17010KT P6SM FEW012 BKN025
FM170300 14010KT P6SM SCT008 OVC012 RMK NXT FCST BY 161200Z